Map

Track Data

SID SEASON NUMBER BASIN SUBBASIN NAME ISO_TIME NATURE LAT LON WMO_WIND WMO_PRES WMO_AGENCY TRACK_TYPE DIST2LAND LANDFALL IFLAG USA_AGENCY USA_ATCF_ID USA_LAT USA_LON USA_RECORD USA_STATUS USA_WIND USA_PRES USA_SSHS USA_R34_NE USA_R34_SE USA_R34_SW USA_R34_NW USA_R50_NE USA_R50_SE USA_R50_SW USA_R50_NW USA_R64_NE USA_R64_SE USA_R64_SW USA_R64_NW USA_POCI USA_ROCI USA_RMW USA_EYE TOKYO_LAT TOKYO_LON TOKYO_GRADE TOKYO_WIND TOKYO_PRES TOKYO_R50_DIR TOKYO_R50_LONG TOKYO_R50_SHORT TOKYO_R30_DIR TOKYO_R30_LONG TOKYO_R30_SHORT TOKYO_LAND CMA_LAT CMA_LON CMA_CAT CMA_WIND CMA_PRES HKO_LAT HKO_LON HKO_CAT HKO_WIND HKO_PRES NEWDELHI_LAT NEWDELHI_LON NEWDELHI_GRADE NEWDELHI_WIND NEWDELHI_PRES NEWDELHI_CI NEWDELHI_DP NEWDELHI_POCI REUNION_LAT REUNION_LON REUNION_TYPE REUNION_WIND REUNION_PRES REUNION_TNUM REUNION_CI REUNION_RMW REUNION_R34_NE REUNION_R34_SE REUNION_R34_SW REUNION_R34_NW REUNION_R50_NE REUNION_R50_SE REUNION_R50_SW REUNION_R50_NW REUNION_R64_NE REUNION_R64_SE REUNION_R64_SW REUNION_R64_NW BOM_LAT BOM_LON BOM_TYPE BOM_WIND BOM_PRES BOM_TNUM BOM_CI BOM_RMW BOM_R34_NE BOM_R34_SE BOM_R34_SW BOM_R34_NW BOM_R50_NE BOM_R50_SE BOM_R50_SW BOM_R50_NW BOM_R64_NE BOM_R64_SE BOM_R64_SW BOM_R64_NW BOM_ROCI BOM_POCI BOM_EYE BOM_POS_METHOD BOM_PRES_METHOD NADI_LAT NADI_LON NADI_CAT NADI_WIND NADI_PRES WELLINGTON_LAT WELLINGTON_LON WELLINGTON_WIND WELLINGTON_PRES DS824_LAT DS824_LON DS824_STAGE DS824_WIND DS824_PRES TD9636_LAT TD9636_LON TD9636_STAGE TD9636_WIND TD9636_PRES TD9635_LAT TD9635_LON TD9635_WIND TD9635_PRES TD9635_ROCI NEUMANN_LAT NEUMANN_LON NEUMANN_CLASS NEUMANN_WIND NEUMANN_PRES MLC_LAT MLC_LON MLC_CLASS MLC_WIND MLC_PRES USA_GUST BOM_GUST BOM_GUST_PER REUNION_GUST REUNION_GUST_PER USA_SEAHGT USA_SEARAD_NE USA_SEARAD_SE USA_SEARAD_SW USA_SEARAD_NW STORM_SPEED STORM_DIR
1957072S20055 1957 23 SI MM NOT_NAMED 1957-03-13 06:00:00 NR -20.1000 54.5000 reunion main 130 122 _____O________ -1 -20.1000 54.5000 99 9.90000 3 162
1957072S20055 1957 23 SI MM NOT_NAMED 1957-03-13 09:00:00 NR -20.2454 54.5453 main 122 99 _____P________ -1 -20.2454 54.5453 99 3 163
1957072S20055 1957 23 SI MM NOT_NAMED 1957-03-13 12:00:00 NR -20.3960 54.5957 main 99 83 _____P________ -1 -20.3960 54.5957 99 3 161
1957072S20055 1957 23 SI MM NOT_NAMED 1957-03-13 15:00:00 NR -20.5570 54.6566 main 76 68 _____P________ -1 -20.5570 54.6566 99 4 159
1957072S20055 1957 23 SI MM NOT_NAMED 1957-03-13 18:00:00 NR -20.7336 54.7330 main 68 47 _____P________ -1 -20.7336 54.7330 99 4 157
1957072S20055 1957 23 SI MM NOT_NAMED 1957-03-13 21:00:00 NR -20.9310 54.8302 main 47 31 _____P________ -1 -20.9310 54.8302 99 5 154
1957072S20055 1957 23 SI MM NOT_NAMED 1957-03-14 00:00:00 NR -21.1544 54.9535 main 23 20 _____P________ -1 -21.1544 54.9535 99 5 152
1957072S20055 1957 23 SI MM NOT_NAMED 1957-03-14 03:00:00 NR -21.4090 55.1082 main 23 23 _____P________ -1 -21.4090 55.1082 99 6 150
1957072S20055 1957 23 SI MM NOT_NAMED 1957-03-14 06:00:00 NR -21.7000 55.3000 reunion main 44 44 _____O________ -1 -21.7000 55.3000 99 9.90000 7 148
1957072S20055 1957 23 SI MM NOT_NAMED 1957-03-14 09:00:00 NR -22.0300 55.5312 main 67 67 _____P________ -1 -22.0300 55.5312 99 8 147
1957072S20055 1957 23 SI MM NOT_NAMED 1957-03-14 12:00:00 NR -22.3917 55.7916 main 113 113 _____P________ -1 -22.3917 55.7916 99 9 146
1957072S20055 1957 23 SI MM NOT_NAMED 1957-03-14 15:00:00 NR -22.7758 56.0679 main 164 164 _____P________ -1 -22.7758 56.0679 99 9 147
1957072S20055 1957 23 SI MM NOT_NAMED 1957-03-14 18:00:00 NR -23.1726 56.3464 main 213 213 _____P________ -1 -23.1726 56.3464 99 9 148
1957072S20055 1957 23 SI MM NOT_NAMED 1957-03-14 21:00:00 NR -23.5727 56.6130 main 266 266 _____P________ -1 -23.5727 56.6130 99 9 150
1957072S20055 1957 23 SI MM NOT_NAMED 1957-03-15 00:00:00 NR -23.9667 56.8538 main 319 319 _____P________ -1 -23.9667 56.8538 99 9 152
1957072S20055 1957 23 SI MM NOT_NAMED 1957-03-15 03:00:00 NR -24.3456 57.0543 main 358 358 _____P________ -1 -24.3456 57.0543 99 8 157
1957072S20055 1957 23 SI MM NOT_NAMED 1957-03-15 06:00:00 NR -24.7000 57.2000 reunion main 403 403 _____O________ -1 -24.7000 57.2000 99 9.90000 7 163
1957072S20055 1957 23 SI MM NOT_NAMED 1957-03-15 09:00:00 NR -25.0231 57.2799 main 438 438 _____P________ -1 -25.0231 57.2799 99 6 172
1957072S20055 1957 23 SI MM NOT_NAMED 1957-03-15 12:00:00 NR -25.3170 57.2985 main 469 469 _____P________ -1 -25.3170 57.2985 99 6 0
1957072S20055 1957 23 SI MM NOT_NAMED 1957-03-15 15:00:00 NR -25.5859 57.2642 main 500 500 _____P________ -1 -25.5859 57.2642 99 5 192
1957072S20055 1957 23 SI MM NOT_NAMED 1957-03-15 18:00:00 NR -25.8340 57.1855 main 518 518 _____P________ -1 -25.8340 57.1855 99 5 200
1957072S20055 1957 23 SI MM NOT_NAMED 1957-03-15 21:00:00 NR -26.0653 57.0710 main 546 544 _____P________ -1 -26.0653 57.0710 99 5 207
1957072S20055 1957 23 SI MM NOT_NAMED 1957-03-16 00:00:00 NR -26.2840 56.9294 main 563 563 _____P________ -1 -26.2840 56.9294 99 5 212
1957072S20055 1957 23 SI MM NOT_NAMED 1957-03-16 03:00:00 NR -26.4942 56.7694 main 582 580 _____P________ -1 -26.4942 56.7694 99 5 216
1957072S20055 1957 23 SI MM NOT_NAMED 1957-03-16 06:00:00 NR -26.7000 56.6000 reunion main 600 _____O________ -1 -26.7000 56.6000 99 9.90000 5 217

About IBTrACS Database

This database is a web-friendly format of International Best Track Archive for Climate Stewardship (IBTrACS), a global best track data archive curated by NOAA dating back to 1842.

Updated: 2021-12-01